createdAt,value
2022-11-17T00:01:09.216Z,65.70
2022-11-17T00:03:15.055Z,65.80
2022-11-17T00:05:17.256Z,65.70
2022-11-17T00:07:19.003Z,65.70
2022-11-17T00:09:20.817Z,65.70
2022-11-17T00:11:22.600Z,65.80
2022-11-17T00:13:24.390Z,65.80
2022-11-17T00:15:26.435Z,65.80
2022-11-17T00:17:28.925Z,65.80
2022-11-17T00:19:30.708Z,65.80
2022-11-17T00:21:32.615Z,65.70
2022-11-17T00:23:34.478Z,65.70
2022-11-17T00:25:37.410Z,65.60
2022-11-17T00:27:39.116Z,65.70
2022-11-17T00:29:40.884Z,65.70
2022-11-17T00:31:42.611Z,65.70
2022-11-17T00:33:44.349Z,65.60
2022-11-17T00:35:49.986Z,65.60
2022-11-17T00:37:51.806Z,65.60
2022-11-17T00:39:59.290Z,65.60
2022-11-17T00:42:02.379Z,65.60
2022-11-17T00:44:04.724Z,65.70
2022-11-17T00:46:06.516Z,65.60
2022-11-17T00:48:08.201Z,65.50
2022-11-17T00:50:10.255Z,65.60
2022-11-17T00:52:11.953Z,65.60
2022-11-17T00:54:13.985Z,65.60
2022-11-17T00:56:15.736Z,65.60
2022-11-17T00:58:17.477Z,65.60
2022-11-17T01:00:19.211Z,65.60
2022-11-17T01:02:21.048Z,65.60
2022-11-17T01:04:22.740Z,65.60
2022-11-17T01:06:24.471Z,65.50
2022-11-17T01:08:26.191Z,65.50
2022-11-17T01:10:27.973Z,65.60
2022-11-17T01:12:29.661Z,65.60
2022-11-17T01:14:31.432Z,65.50
2022-11-17T01:16:33.326Z,65.60
2022-11-17T01:18:35.356Z,65.50
2022-11-17T01:20:37.094Z,65.60
2022-11-17T01:22:38.824Z,65.50
2022-11-17T01:24:40.560Z,65.50
2022-11-17T01:26:42.948Z,65.50
2022-11-17T01:28:44.880Z,65.50
2022-11-17T01:30:46.609Z,65.50
2022-11-17T01:32:48.334Z,65.50
2022-11-17T01:34:50.932Z,65.50
2022-11-17T01:36:52.648Z,65.50
2022-11-17T01:38:54.791Z,65.40
2022-11-17T01:41:00.221Z,65.50
2022-11-17T01:43:05.103Z,65.50
2022-11-17T01:45:20.562Z,65.50
2022-11-17T01:47:49.244Z,65.50
2022-11-17T01:49:52.639Z,65.40
2022-11-17T01:52:02.048Z,65.40
2022-11-17T01:54:04.650Z,65.50
2022-11-17T01:56:08.437Z,65.40
2022-11-17T01:58:30.078Z,65.50
2022-11-17T02:00:31.930Z,65.50
2022-11-17T02:02:34.597Z,65.40
2022-11-17T02:04:41.693Z,65.40
2022-11-17T02:06:43.428Z,65.50
2022-11-17T02:08:46.388Z,65.40
2022-11-17T02:10:51.748Z,65.40
2022-11-17T02:12:53.927Z,65.40
2022-11-17T02:14:55.608Z,65.30
2022-11-17T02:17:00.991Z,65.40
2022-11-17T02:19:07.012Z,65.30
2022-11-17T02:21:27.568Z,65.30
2022-11-17T02:23:29.257Z,65.30
2022-11-17T02:25:49.799Z,65.30
2022-11-17T02:28:10.479Z,65.30
2022-11-17T02:30:19.354Z,65.30
2022-11-17T02:32:34.665Z,65.30
2022-11-17T02:34:47.772Z,65.20
2022-11-17T02:36:57.914Z,65.40
2022-11-17T02:39:14.899Z,65.40
2022-11-17T02:41:16.812Z,65.30
2022-11-17T02:43:20.459Z,64.90
2022-11-17T02:45:25.503Z,65.20
2022-11-17T02:47:28.545Z,65.20
2022-11-17T02:49:38.285Z,65.20
2022-11-17T02:51:41.022Z,65.20
2022-11-17T02:53:43.016Z,65.20
2022-11-17T02:55:52.016Z,64.90
2022-11-17T03:00:38.753Z,65.20
2022-11-17T03:03:03.417Z,65.10
2022-11-17T03:05:09.491Z,65.20
2022-11-17T03:07:30.105Z,65.20
2022-11-17T03:09:57.830Z,65.20
2022-11-17T03:12:05.389Z,65.20
2022-11-17T03:14:10.389Z,65.10
2022-11-17T03:16:27.596Z,65.00
2022-11-17T03:18:34.612Z,65.20
2022-11-17T03:20:39.271Z,65.10
2022-11-17T03:22:49.722Z,65.20
2022-11-17T03:24:53.666Z,65.20
2022-11-17T03:26:57.274Z,65.00
2022-11-17T03:28:59.977Z,65.20
2022-11-17T03:31:04.813Z,65.20
2022-11-17T03:33:12.360Z,65.00
2022-11-17T03:35:17.121Z,65.20
2022-11-17T03:37:21.175Z,65.00
2022-11-17T03:39:25.387Z,65.70
2022-11-17T03:41:29.767Z,65.00
2022-11-17T03:43:31.796Z,65.00
2022-11-17T03:45:42.761Z,64.80
2022-11-17T03:47:45.136Z,65.20
2022-11-17T03:49:56.638Z,65.00
2022-11-17T03:51:58.709Z,65.20
2022-11-17T03:54:01.082Z,64.80
2022-11-17T03:56:06.069Z,65.10
2022-11-17T03:58:10.939Z,65.20
2022-11-17T04:00:14.663Z,65.20
2022-11-17T04:02:20.656Z,65.10
2022-11-17T04:04:22.862Z,65.20
2022-11-17T04:06:24.819Z,65.00
2022-11-17T04:08:26.903Z,65.00
2022-11-17T04:10:29.089Z,64.80
2022-11-17T04:12:31.115Z,64.70
2022-11-17T04:14:33.273Z,64.70
2022-11-17T04:16:35.466Z,64.80
2022-11-17T04:18:37.516Z,64.70
2022-11-17T04:20:39.605Z,64.80
2022-11-17T04:22:41.796Z,64.80
2022-11-17T04:24:43.820Z,64.90
2022-11-17T04:26:46.011Z,64.80
2022-11-17T04:28:49.331Z,64.60
2022-11-17T04:30:51.529Z,64.90
2022-11-17T04:32:54.000Z,64.80
2022-11-17T04:34:56.110Z,64.90
2022-11-17T04:36:58.198Z,64.80
2022-11-17T04:39:00.398Z,64.70
2022-11-17T04:41:03.818Z,64.60
2022-11-17T04:43:07.197Z,65.00
2022-11-17T04:45:09.481Z,65.00
2022-11-17T04:47:11.619Z,65.00
2022-11-17T04:49:14.558Z,64.80
2022-11-17T04:51:16.919Z,65.00
2022-11-17T04:53:18.968Z,64.80
2022-11-17T04:55:20.962Z,64.60
2022-11-17T04:57:22.900Z,64.80
2022-11-17T04:59:24.998Z,64.80
2022-11-17T05:01:27.562Z,64.60
2022-11-17T05:03:30.449Z,65.00
2022-11-17T05:05:32.391Z,64.80
2022-11-17T05:07:34.541Z,64.90
2022-11-17T05:09:36.592Z,64.80
2022-11-17T05:11:38.957Z,64.80
2022-11-17T05:13:41.004Z,64.90
2022-11-17T05:15:43.012Z,64.70
2022-11-17T05:17:45.054Z,64.90
2022-11-17T05:19:47.881Z,64.80
2022-11-17T05:21:50.042Z,65.10
2022-11-17T05:23:52.064Z,65.00
2022-11-17T05:25:54.029Z,64.70
2022-11-17T05:27:56.185Z,64.90
2022-11-17T05:29:58.110Z,64.60
2022-11-17T05:32:00.278Z,64.60
2022-11-17T05:34:02.675Z,64.80
2022-11-17T05:36:04.937Z,64.90
2022-11-17T05:38:07.084Z,65.50
2022-11-17T05:40:09.491Z,64.80
2022-11-17T05:42:11.684Z,64.90
2022-11-17T05:44:13.662Z,64.70
2022-11-17T05:46:16.013Z,64.80
2022-11-17T05:48:18.202Z,65.00
2022-11-17T05:50:20.300Z,64.70
2022-11-17T05:52:22.445Z,64.70
2022-11-17T05:54:24.440Z,64.80
2022-11-17T05:56:27.394Z,64.80
2022-11-17T05:58:31.449Z,64.90
2022-11-17T06:00:33.812Z,65.00
2022-11-17T06:02:42.024Z,65.00
2022-11-17T06:04:44.220Z,65.10
2022-11-17T06:06:46.705Z,65.00
2022-11-17T06:08:49.245Z,65.00
2022-11-17T06:10:52.433Z,65.10
2022-11-17T06:12:54.463Z,64.90
2022-11-17T06:14:56.437Z,64.80
2022-11-17T06:17:01.043Z,64.80
2022-11-17T06:19:09.519Z,65.00
2022-11-17T06:21:14.018Z,65.00
2022-11-17T06:23:17.211Z,65.00
2022-11-17T06:25:19.937Z,65.10
2022-11-17T06:27:22.198Z,65.00
2022-11-17T06:29:24.414Z,65.30
2022-11-17T06:31:26.980Z,65.30
2022-11-17T06:33:30.554Z,65.20
2022-11-17T06:35:33.445Z,65.10
2022-11-17T06:37:35.360Z,65.20
2022-11-17T06:39:37.072Z,65.10
2022-11-17T06:41:38.969Z,65.10
2022-11-17T06:43:40.697Z,65.10
2022-11-17T06:45:44.097Z,65.20
2022-11-17T06:47:45.800Z,65.20
2022-11-17T06:49:47.604Z,65.10
2022-11-17T06:51:49.293Z,65.10
2022-11-17T06:53:51.134Z,65.10
2022-11-17T06:55:54.494Z,65.10
2022-11-17T06:57:59.756Z,65.10
2022-11-17T07:00:01.619Z,65.20
2022-11-17T07:02:03.563Z,65.20
2022-11-17T07:04:05.359Z,65.10
2022-11-17T07:06:08.467Z,65.10
2022-11-17T07:08:10.276Z,65.10
2022-11-17T07:10:12.098Z,65.20
2022-11-17T07:12:13.848Z,65.10
2022-11-17T07:14:15.699Z,65.10
2022-11-17T07:16:23.175Z,65.20
2022-11-17T07:18:25.521Z,65.90
2022-11-17T07:20:27.430Z,65.20
2022-11-17T07:22:29.447Z,65.20
2022-11-17T07:24:31.183Z,65.10
2022-11-17T07:26:33.056Z,65.10
2022-11-17T07:28:35.356Z,65.10
2022-11-17T07:30:37.419Z,65.10
2022-11-17T07:32:39.195Z,65.10
2022-11-17T07:34:41.229Z,65.00
2022-11-17T07:36:42.992Z,65.20
2022-11-17T07:38:44.854Z,65.10
2022-11-17T07:40:46.615Z,65.10
2022-11-17T07:42:48.881Z,65.00
2022-11-17T07:44:51.922Z,65.10
2022-11-17T07:46:54.338Z,64.90
2022-11-17T07:48:56.254Z,65.10
2022-11-17T07:50:58.658Z,65.10
2022-11-17T07:53:00.424Z,65.10
2022-11-17T07:55:02.235Z,65.00
2022-11-17T07:57:04.048Z,65.00
2022-11-17T07:59:05.866Z,65.10
2022-11-17T08:01:08.390Z,65.10
2022-11-17T08:03:10.266Z,65.00
2022-11-17T08:05:12.024Z,65.10
2022-11-17T08:07:13.867Z,65.10
2022-11-17T08:09:15.812Z,65.00
2022-11-17T08:11:17.663Z,64.90
2022-11-17T08:13:19.407Z,65.10
2022-11-17T08:15:21.580Z,65.20
2022-11-17T08:17:23.335Z,65.10
2022-11-17T08:19:25.120Z,65.10
2022-11-17T08:21:26.897Z,65.10
2022-11-17T08:23:28.743Z,65.20
2022-11-17T08:25:30.529Z,65.20
2022-11-17T08:27:32.383Z,65.00
2022-11-17T08:29:34.124Z,65.00
2022-11-17T08:31:35.951Z,65.00
2022-11-17T08:33:37.748Z,65.10
2022-11-17T08:35:40.255Z,65.00
2022-11-17T08:37:43.205Z,65.00
2022-11-17T08:39:45.066Z,65.00
2022-11-17T08:41:46.824Z,65.00
2022-11-17T08:43:50.537Z,65.00
2022-11-17T08:45:52.312Z,65.70
2022-11-17T08:47:55.467Z,65.00
2022-11-17T08:49:57.215Z,65.00
2022-11-17T08:51:59.068Z,64.90
2022-11-17T08:54:00.827Z,64.90
2022-11-17T08:56:06.335Z,64.90
2022-11-17T08:58:08.351Z,64.90
2022-11-17T09:00:10.429Z,65.00
2022-11-17T09:02:12.449Z,64.90
2022-11-17T09:04:14.347Z,65.00
2022-11-17T09:06:16.718Z,64.90
2022-11-17T09:10:40.335Z,65.00
2022-11-17T09:12:42.171Z,65.00
2022-11-17T09:14:44.125Z,65.00
2022-11-17T09:16:45.974Z,65.10
2022-11-17T09:18:47.682Z,65.20
2022-11-17T09:20:49.475Z,65.10
2022-11-17T09:22:51.225Z,65.10
2022-11-17T09:24:53.087Z,65.10
2022-11-17T09:26:55.074Z,65.10
2022-11-17T09:29:00.963Z,65.00
2022-11-17T09:31:06.594Z,65.10
2022-11-17T09:33:08.418Z,65.00
2022-11-17T09:35:10.214Z,65.10
2022-11-17T09:37:11.987Z,65.10
2022-11-17T09:39:13.694Z,65.10
2022-11-17T09:41:15.751Z,65.20
2022-11-17T09:43:25.446Z,65.20
2022-11-17T09:45:30.130Z,65.20
2022-11-17T09:47:43.139Z,65.20
2022-11-17T09:49:44.862Z,65.20
2022-11-17T09:51:48.427Z,65.20
2022-11-17T09:54:16.537Z,65.60
2022-11-17T09:56:18.394Z,65.20
2022-11-17T09:58:24.074Z,65.20
2022-11-17T10:00:25.965Z,65.20
2022-11-17T10:02:28.043Z,65.20
2022-11-17T10:04:29.879Z,65.20
2022-11-17T10:06:31.927Z,65.20
2022-11-17T10:08:33.716Z,65.20
2022-11-17T10:10:51.801Z,65.20
2022-11-17T10:12:57.222Z,65.20
2022-11-17T10:15:08.114Z,65.20
2022-11-17T10:17:09.912Z,65.20
2022-11-17T10:19:14.613Z,65.30
2022-11-17T10:21:16.369Z,65.30
2022-11-17T10:23:19.437Z,65.20
2022-11-17T10:25:23.213Z,66.00
2022-11-17T10:27:27.208Z,65.20
2022-11-17T10:29:28.951Z,65.20
2022-11-17T10:31:39.201Z,65.20
2022-11-17T10:33:42.801Z,65.30
2022-11-17T10:35:54.393Z,65.20
2022-11-17T10:38:13.174Z,65.30
2022-11-17T10:40:22.033Z,65.20
2022-11-17T10:42:27.097Z,65.20
2022-11-17T10:44:30.099Z,65.20
2022-11-17T10:46:43.098Z,65.30
2022-11-17T10:48:59.025Z,65.30
2022-11-17T10:51:01.751Z,65.20
2022-11-17T10:53:41.380Z,65.20
2022-11-17T10:55:53.150Z,65.20
2022-11-17T10:58:24.108Z,65.20
2022-11-17T11:00:25.961Z,65.20
2022-11-17T11:02:29.973Z,65.20
2022-11-17T11:04:38.994Z,65.20
2022-11-17T11:06:40.733Z,65.20
2022-11-17T11:08:54.076Z,65.20
2022-11-17T11:10:58.139Z,65.20
2022-11-17T11:13:06.175Z,65.10
2022-11-17T11:15:13.931Z,65.20
2022-11-17T11:17:16.803Z,65.10
2022-11-17T11:19:19.923Z,65.10
2022-11-17T11:21:35.165Z,65.10
2022-11-17T11:23:44.531Z,65.10
2022-11-17T11:25:51.848Z,65.10
2022-11-17T11:28:08.729Z,65.10
2022-11-17T11:30:15.398Z,65.10
2022-11-17T11:32:26.426Z,65.10
2022-11-17T11:34:41.958Z,65.10
2022-11-17T11:36:53.113Z,65.00
2022-11-17T11:39:12.499Z,65.00
2022-11-17T11:41:20.512Z,65.00
2022-11-17T11:43:33.380Z,65.00
2022-11-17T11:45:35.069Z,65.00
2022-11-17T11:47:39.504Z,65.00
2022-11-17T11:49:44.137Z,65.00
2022-11-17T11:51:48.711Z,65.00
2022-11-17T11:53:54.399Z,65.00
2022-11-17T11:56:07.534Z,65.00
2022-11-17T11:58:15.210Z,65.00
2022-11-17T12:00:17.707Z,65.00
2022-11-17T12:02:25.017Z,65.00
2022-11-17T12:04:37.350Z,65.00
2022-11-17T12:06:57.896Z,65.00
2022-11-17T12:09:09.286Z,64.90
2022-11-17T12:11:12.559Z,65.00
2022-11-17T12:13:15.425Z,65.00
2022-11-17T12:15:19.881Z,65.00
2022-11-17T12:17:21.862Z,65.00
2022-11-17T12:19:42.025Z,64.90
2022-11-17T12:21:43.848Z,64.90
2022-11-17T12:23:45.566Z,64.80
2022-11-17T12:25:53.499Z,64.90
2022-11-17T12:27:56.114Z,64.90
2022-11-17T12:29:58.111Z,64.80
2022-11-17T12:32:00.793Z,64.90
2022-11-17T12:34:04.459Z,64.90
2022-11-17T12:36:30.058Z,64.90
2022-11-17T12:38:32.153Z,64.90
2022-11-17T12:40:40.019Z,65.00
2022-11-17T12:43:01.727Z,65.00
2022-11-17T12:45:07.873Z,65.00
2022-11-17T12:47:15.637Z,65.00
2022-11-17T12:49:25.821Z,65.00
2022-11-17T12:51:35.109Z,65.00
2022-11-17T12:53:48.004Z,65.10
2022-11-17T12:55:58.912Z,65.00
2022-11-17T12:58:00.625Z,65.10
2022-11-17T13:00:06.258Z,65.10
2022-11-17T13:02:10.738Z,65.10
2022-11-17T13:04:16.837Z,65.10
2022-11-17T13:06:36.083Z,65.10
2022-11-17T13:08:38.353Z,65.10
2022-11-17T13:10:40.107Z,65.10
2022-11-17T13:12:41.952Z,65.10
2022-11-17T13:14:56.960Z,65.20
2022-11-17T13:16:59.387Z,65.10
2022-11-17T13:19:01.140Z,65.20
2022-11-17T13:21:03.895Z,65.20
2022-11-17T13:23:07.071Z,65.20
2022-11-17T13:25:13.025Z,65.20
2022-11-17T13:27:20.583Z,65.20
2022-11-17T13:29:22.370Z,65.30
2022-11-17T13:31:24.206Z,65.30
2022-11-17T13:33:26.311Z,65.30
2022-11-17T13:35:29.568Z,65.30
2022-11-17T13:37:31.761Z,65.30
2022-11-17T13:39:33.470Z,65.40
2022-11-17T13:41:39.114Z,65.30
2022-11-17T13:43:41.499Z,65.30
2022-11-17T13:45:43.458Z,65.20
2022-11-17T13:47:48.923Z,65.40
2022-11-17T13:49:50.746Z,65.40
2022-11-17T13:51:52.575Z,65.40
2022-11-17T13:53:57.452Z,65.40
2022-11-17T13:55:59.494Z,65.40
2022-11-17T13:58:06.631Z,65.40
2022-11-17T14:00:16.037Z,65.40
2022-11-17T14:02:17.837Z,65.40
2022-11-17T14:04:23.444Z,65.40
2022-11-17T14:06:25.715Z,65.50
2022-11-17T14:08:30.758Z,65.40
2022-11-17T14:10:33.587Z,65.60
2022-11-17T14:12:35.303Z,65.50
2022-11-17T14:14:44.242Z,65.50
2022-11-17T14:16:46.130Z,65.60
2022-11-17T14:18:58.593Z,65.60
2022-11-17T14:21:18.502Z,65.70
2022-11-17T14:23:20.320Z,65.70
2022-11-17T14:25:22.050Z,65.70
2022-11-17T14:27:29.538Z,65.60
2022-11-17T14:29:31.246Z,65.80
2022-11-17T14:31:33.114Z,65.70
2022-11-17T14:33:34.966Z,65.70
2022-11-17T14:35:36.764Z,65.70
2022-11-17T14:37:38.794Z,65.70
2022-11-17T14:39:40.752Z,65.40
2022-11-17T14:41:46.489Z,65.70
2022-11-17T14:43:48.578Z,65.80
2022-11-17T14:45:50.814Z,65.50
2022-11-17T14:47:52.983Z,65.80
2022-11-17T14:49:55.235Z,65.50
2022-11-17T14:51:57.397Z,65.40
2022-11-17T14:53:59.593Z,65.50
2022-11-17T14:56:07.982Z,65.50
2022-11-17T14:58:10.264Z,65.80
2022-11-17T15:00:17.382Z,65.40
2022-11-17T15:02:22.036Z,65.70
2022-11-17T15:06:46.323Z,65.60
2022-11-17T15:08:53.206Z,65.60
2022-11-17T15:10:55.389Z,65.80
2022-11-17T15:12:57.488Z,65.60
2022-11-17T15:14:59.623Z,65.60
2022-11-17T15:17:01.730Z,65.50
2022-11-17T15:19:03.841Z,65.50
2022-11-17T15:21:06.747Z,65.70
2022-11-17T15:23:08.695Z,65.80
2022-11-17T15:25:10.926Z,65.60
2022-11-17T15:27:20.134Z,65.60
2022-11-17T15:29:22.204Z,66.00
2022-11-17T15:31:24.244Z,65.50
2022-11-17T15:33:26.349Z,65.50
2022-11-17T15:35:28.330Z,65.60
2022-11-17T15:37:30.678Z,65.60
2022-11-17T15:39:32.694Z,65.70
2022-11-17T15:41:35.520Z,65.50
2022-11-17T15:43:38.529Z,65.90
2022-11-17T15:45:40.587Z,66.00
2022-11-17T15:47:43.232Z,65.70
2022-11-17T15:49:45.038Z,66.70
2022-11-17T15:51:46.765Z,66.00
2022-11-17T15:53:49.295Z,66.00
2022-11-17T15:55:51.015Z,66.00
2022-11-17T15:57:53.423Z,66.00
2022-11-17T15:59:55.193Z,66.00
2022-11-17T16:01:57.110Z,66.00
2022-11-17T16:03:58.865Z,66.00
2022-11-17T16:06:00.728Z,66.00
2022-11-17T16:08:02.497Z,66.00
2022-11-17T16:10:04.468Z,66.00
2022-11-17T16:12:06.289Z,66.00
2022-11-17T16:14:08.244Z,66.00
2022-11-17T16:16:12.598Z,66.10
2022-11-17T16:18:14.468Z,66.10
2022-11-17T16:20:16.339Z,66.10
2022-11-17T16:22:18.254Z,66.10
2022-11-17T16:24:20.019Z,66.10
2022-11-17T16:26:22.494Z,66.00
2022-11-17T16:28:24.227Z,66.10
2022-11-17T16:30:29.253Z,66.00
2022-11-17T16:32:33.159Z,66.10
2022-11-17T16:34:35.972Z,66.10
2022-11-17T16:36:38.766Z,66.10
2022-11-17T16:38:49.850Z,66.10
2022-11-17T16:41:01.524Z,66.10
2022-11-17T16:43:03.343Z,66.10
2022-11-17T16:45:05.305Z,66.10
2022-11-17T16:47:07.120Z,66.10
2022-11-17T16:49:10.746Z,66.10
2022-11-17T16:51:12.954Z,66.10
2022-11-17T16:53:14.835Z,66.10
2022-11-17T16:55:16.723Z,66.10
2022-11-17T16:57:18.508Z,66.10
2022-11-17T16:59:20.489Z,66.10
2022-11-17T17:01:24.100Z,66.20
2022-11-17T17:03:25.949Z,66.10
2022-11-17T17:05:27.693Z,66.10
2022-11-17T17:07:29.532Z,66.10
2022-11-17T17:09:31.377Z,66.20
2022-11-17T17:11:34.965Z,66.10
2022-11-17T17:13:36.729Z,66.10
2022-11-17T17:15:38.482Z,66.10
2022-11-17T17:17:40.216Z,66.10
2022-11-17T17:19:42.026Z,66.10
2022-11-17T17:21:43.808Z,66.10
2022-11-17T17:23:45.797Z,66.10
2022-11-17T17:25:47.539Z,66.10
2022-11-17T17:27:49.374Z,66.10
2022-11-17T17:29:51.086Z,66.10
2022-11-17T17:31:52.867Z,66.00
2022-11-17T17:33:54.893Z,66.00
2022-11-17T17:36:00.905Z,66.10
2022-11-17T17:38:02.674Z,66.10
2022-11-17T17:40:04.668Z,66.10
2022-11-17T17:42:06.378Z,66.10
2022-11-17T17:44:08.564Z,66.10
2022-11-17T17:46:15.461Z,66.80
2022-11-17T17:48:17.604Z,66.20
2022-11-17T17:50:19.348Z,66.10
2022-11-17T17:52:21.210Z,66.00
2022-11-17T17:54:22.954Z,66.00
2022-11-17T17:56:24.985Z,66.10
2022-11-17T17:58:27.036Z,66.20
2022-11-17T18:00:28.888Z,66.00
2022-11-17T18:02:30.658Z,66.00
2022-11-17T18:04:32.433Z,66.00
2022-11-17T18:06:38.212Z,66.10
2022-11-17T18:08:40.088Z,66.10
2022-11-17T18:10:41.868Z,66.10
2022-11-17T18:12:43.678Z,66.10
2022-11-17T18:14:45.590Z,66.10
2022-11-17T18:16:48.363Z,66.10
2022-11-17T18:18:55.090Z,66.10
2022-11-17T18:21:04.667Z,66.10
2022-11-17T18:23:06.400Z,66.10
2022-11-17T18:25:09.168Z,66.00
2022-11-17T18:27:12.293Z,66.10
2022-11-17T18:29:15.714Z,66.00
2022-11-17T18:31:18.246Z,66.00
2022-11-17T18:33:20.016Z,66.00
2022-11-17T18:35:21.756Z,66.10
2022-11-17T18:37:23.540Z,66.00
2022-11-17T18:39:25.369Z,66.10
2022-11-17T18:41:28.141Z,66.00
2022-11-17T18:43:30.697Z,66.10
2022-11-17T18:45:35.670Z,66.10
2022-11-17T18:47:37.399Z,66.10
2022-11-17T18:49:39.193Z,66.10
2022-11-17T18:51:41.004Z,66.20
2022-11-17T18:53:43.103Z,66.10
2022-11-17T18:55:44.837Z,66.10
2022-11-17T18:57:46.687Z,66.10
2022-11-17T18:59:48.402Z,66.00
2022-11-17T19:01:50.390Z,66.10
2022-11-17T19:03:52.810Z,66.10
2022-11-17T19:05:54.625Z,66.20
2022-11-17T19:07:56.370Z,66.80
2022-11-17T19:09:58.143Z,66.00
2022-11-17T19:11:59.895Z,66.10
2022-11-17T19:14:02.222Z,66.20
2022-11-17T19:16:11.613Z,66.10
2022-11-17T19:18:13.574Z,66.20
2022-11-17T19:20:15.459Z,66.00
2022-11-17T19:22:17.313Z,66.00
2022-11-17T19:24:19.041Z,66.00
2022-11-17T19:26:23.926Z,66.00
2022-11-17T19:28:25.669Z,66.10
2022-11-17T19:30:27.495Z,66.00
2022-11-17T19:32:29.219Z,66.10
2022-11-17T19:34:31.012Z,66.00
2022-11-17T19:36:33.776Z,66.00
2022-11-17T19:38:36.346Z,66.00
2022-11-17T19:40:38.058Z,66.00
2022-11-17T19:42:39.870Z,66.00
2022-11-17T19:44:42.690Z,66.00
2022-11-17T19:46:44.529Z,66.00
2022-11-17T19:48:46.282Z,66.00
2022-11-17T19:50:53.004Z,66.00
2022-11-17T19:52:57.471Z,66.00
2022-11-17T19:54:59.284Z,66.10
2022-11-17T19:57:01.164Z,66.00
2022-11-17T19:59:03.044Z,66.00
2022-11-17T20:01:11.745Z,66.70
2022-11-17T20:03:13.637Z,66.00
2022-11-17T20:05:15.359Z,66.10
2022-11-17T20:07:17.308Z,66.00
2022-11-17T20:09:19.399Z,66.10
2022-11-17T20:11:22.460Z,66.00
2022-11-17T20:13:24.173Z,66.10
2022-11-17T20:15:39.264Z,66.00
2022-11-17T20:17:40.993Z,66.00
2022-11-17T20:19:42.813Z,66.00
2022-11-17T20:21:46.146Z,66.00
2022-11-17T20:23:48.014Z,66.10
2022-11-17T20:25:49.853Z,66.00
2022-11-17T20:27:51.871Z,66.00
2022-11-17T20:29:53.597Z,66.00
2022-11-17T20:31:55.358Z,66.00
2022-11-17T20:33:57.746Z,66.00
2022-11-17T20:36:00.160Z,66.00
2022-11-17T20:38:01.904Z,66.00
2022-11-17T20:40:03.866Z,66.10
2022-11-17T20:42:05.585Z,66.00
2022-11-17T20:44:07.419Z,66.00
2022-11-17T20:46:09.204Z,66.70
2022-11-17T20:48:10.963Z,66.00
2022-11-17T20:50:12.721Z,66.00
2022-11-17T20:52:15.738Z,66.00
2022-11-17T20:54:17.442Z,66.00
2022-11-17T20:56:19.303Z,66.00
2022-11-17T20:58:21.034Z,66.10
2022-11-17T21:00:22.839Z,66.10
2022-11-17T21:02:24.692Z,66.10
2022-11-17T21:04:26.493Z,66.10
2022-11-17T21:06:28.207Z,66.10
2022-11-17T21:08:31.112Z,66.10
2022-11-17T21:10:32.853Z,66.20
2022-11-17T21:12:34.617Z,66.20
2022-11-17T21:14:36.331Z,66.00
2022-11-17T21:16:39.174Z,66.00
2022-11-17T21:18:47.578Z,66.00
2022-11-17T21:20:49.329Z,66.20
2022-11-17T21:22:51.959Z,66.20
2022-11-17T21:24:53.761Z,66.10
2022-11-17T21:26:55.493Z,66.10
2022-11-17T21:29:03.236Z,66.10
2022-11-17T21:31:09.868Z,66.10
2022-11-17T21:33:11.712Z,66.10
2022-11-17T21:35:13.482Z,66.10
2022-11-17T21:37:15.230Z,66.10
2022-11-17T21:39:18.272Z,66.10
2022-11-17T21:41:22.092Z,66.20
2022-11-17T21:43:23.831Z,66.20
2022-11-17T21:45:25.586Z,66.20
2022-11-17T21:47:27.331Z,66.20
2022-11-17T21:49:29.136Z,66.20
2022-11-17T21:51:32.050Z,66.20
2022-11-17T21:53:34.236Z,66.20
2022-11-17T21:55:35.933Z,66.20
2022-11-17T21:57:37.750Z,66.20
2022-11-17T21:59:39.521Z,66.20
2022-11-17T22:01:41.371Z,66.20
2022-11-17T22:03:43.145Z,66.20
2022-11-17T22:05:44.974Z,66.20
2022-11-17T22:07:46.686Z,66.20
2022-11-17T22:09:48.434Z,66.20
2022-11-17T22:11:50.185Z,66.20
2022-11-17T22:13:51.973Z,66.20
2022-11-17T22:15:53.682Z,66.20
2022-11-17T22:17:55.469Z,66.20
2022-11-17T22:19:57.199Z,66.20
2022-11-17T22:21:58.974Z,66.30
2022-11-17T22:24:00.718Z,66.30
2022-11-17T22:26:05.003Z,66.20
2022-11-17T22:28:06.717Z,66.20
2022-11-17T22:30:08.905Z,66.20
2022-11-17T22:32:10.634Z,66.20
2022-11-17T22:34:12.695Z,66.30
2022-11-17T22:36:14.775Z,66.20
2022-11-17T22:38:16.653Z,66.30
2022-11-17T22:40:18.363Z,66.30
2022-11-17T22:42:20.170Z,66.20
2022-11-17T22:44:21.903Z,66.20
2022-11-17T22:46:24.940Z,66.20
2022-11-17T22:48:26.710Z,66.20
2022-11-17T22:50:28.517Z,66.10
2022-11-17T22:52:30.242Z,66.30
2022-11-17T22:54:32.066Z,66.30
2022-11-17T22:56:33.874Z,66.30
2022-11-17T22:58:35.946Z,66.30
2022-11-17T23:00:37.697Z,66.20
2022-11-17T23:02:39.536Z,66.20
2022-11-17T23:04:41.253Z,66.20
2022-11-17T23:06:43.584Z,66.30
2022-11-17T23:08:45.290Z,66.30
2022-11-17T23:10:47.097Z,66.30
2022-11-17T23:12:50.029Z,66.30
2022-11-17T23:14:52.568Z,66.20
2022-11-17T23:16:54.298Z,66.30
2022-11-17T23:18:56.610Z,66.30
2022-11-17T23:20:58.638Z,66.20
2022-11-17T23:23:00.391Z,66.20
2022-11-17T23:25:02.488Z,66.20
2022-11-17T23:27:04.330Z,66.20
2022-11-17T23:29:06.238Z,66.20
2022-11-17T23:31:10.114Z,66.30
2022-11-17T23:33:11.845Z,66.40
2022-11-17T23:35:13.662Z,66.30
2022-11-17T23:37:15.411Z,66.20
2022-11-17T23:39:17.327Z,66.30
2022-11-17T23:41:20.043Z,66.20
2022-11-17T23:43:21.897Z,66.20
2022-11-17T23:45:23.625Z,66.30
2022-11-17T23:47:25.405Z,66.30
2022-11-17T23:49:27.165Z,66.20
2022-11-17T23:51:28.945Z,66.20
2022-11-17T23:53:30.882Z,66.30
2022-11-17T23:55:32.684Z,66.20
2022-11-17T23:57:34.426Z,66.20
2022-11-17T23:59:36.228Z,66.30
